Time;durP1;ratioP1;P1;durP2;ratioP2;P2;SDS_P1;SDS_P2;PMS_P1;PMS_P2;Temp;Humidity;BMP_temperature;BMP_pressure;BME280_temperature;BME280_humidity;BME280_pressure;Samples;Min_cycle;Max_cycle;Signal;HPM_P1;HPM_P2
2021/12/07 00:01:55;;;;;;;34.67;22.25;;;;;;;;;;5049932;28;20047;-88
2021/12/07 00:04:20;;;;;;;34.10;21.23;;;;;;;;;;5049887;28;20057;-88
2021/12/07 00:06:46;;;;;;;36.15;22.88;;;;;;;;;;5032471;28;20512;-88
2021/12/07 00:09:12;;;;;;;34.75;21.50;;;;;;;;;;5049909;28;20031;-88
2021/12/07 00:11:38;;;;;;;34.20;21.33;;;;;;;;;;5032278;28;20468;-88
2021/12/07 00:14:11;;;;;;;36.50;22.58;;;;;;;;;;5032442;28;20028;-89
2021/12/07 00:16:37;;;;;;;35.88;20.95;;;;;;;;;;5049626;28;20472;-88
2021/12/07 00:19:03;;;;;;;33.80;20.75;;;;;;;;;;5032470;28;20104;-88
2021/12/07 00:21:28;;;;;;;33.90;21.38;;;;;;;;;;5049701;28;20527;-89
2021/12/07 00:23:53;;;;;;;33.17;19.77;;;;;;;;;;5049794;28;20091;-88
2021/12/07 00:26:18;;;;;;;33.17;20.60;;;;;;;;;;5031432;28;20052;-89
2021/12/07 00:28:44;;;;;;;34.58;21.42;;;;;;;;;;5049954;28;20020;-88
2021/12/07 00:31:15;;;;;;;34.88;21.83;;;;;;;;;;5031555;28;20025;-88
2021/12/07 00:33:53;;;;;;;33.63;20.55;;;;;;;;;;5049512;28;20056;-88
2021/12/07 00:36:18;;;;;;;34.35;21.00;;;;;;;;;;5049664;28;20045;-88
2021/12/07 00:38:44;;;;;;;34.72;21.15;;;;;;;;;;5050073;28;20044;-88
2021/12/07 00:41:10;;;;;;;32.28;21.08;;;;;;;;;;5035665;28;20407;-89
2021/12/07 00:43:35;;;;;;;33.22;19.80;;;;;;;;;;5053593;28;20025;-89
2021/12/07 00:46:01;;;;;;;34.78;21.27;;;;;;;;;;5035951;28;20107;-89
2021/12/07 00:48:27;;;;;;;32.90;20.15;;;;;;;;;;5035411;28;20388;-88
2021/12/07 00:50:54;;;;;;;33.63;20.63;;;;;;;;;;5054136;28;20021;-88
2021/12/07 00:53:20;;;;;;;35.75;21.73;;;;;;;;;;5036303;28;20032;-88
2021/12/07 00:55:47;;;;;;;33.65;20.98;;;;;;;;;;5035860;28;20024;-89
2021/12/07 00:58:18;;;;;;;33.83;21.27;;;;;;;;;;5053199;28;20126;-89
2021/12/07 01:00:45;;;;;;;37.92;21.85;;;;;;;;;;5035113;28;20070;-88
2021/12/07 01:03:10;;;;;;;33.25;20.25;;;;;;;;;;5034962;28;20017;-89
2021/12/07 01:05:36;;;;;;;33.97;20.02;;;;;;;;;;5053100;28;20023;-89
2021/12/07 01:26:52;;;;;;;40.17;23.42;;;;;;;;;;5052345;28;20076;-89
2021/12/07 01:29:20;;;;;;;36.45;22.58;;;;;;;;;;5052444;28;20044;-89
2021/12/07 01:34:45;;;;;;;42.08;24.77;;;;;;;;;;5052762;28;20017;-89
2021/12/07 01:40:18;;;;;;;37.83;22.25;;;;;;;;;;5053911;28;20074;-89
2021/12/07 01:43:05;;;;;;;37.45;22.55;;;;;;;;;;5051610;28;20062;-88
2021/12/07 01:48:09;;;;;;;36.65;22.02;;;;;;;;;;5051901;28;20021;-88
2021/12/07 02:00:31;;;;;;;39.90;24.60;;;;;;;;;;5051965;28;20463;-89
2021/12/07 02:02:56;;;;;;;39.53;23.85;;;;;;;;;;5052154;28;20040;-89
2021/12/07 02:05:22;;;;;;;39.90;23.10;;;;;;;;;;5034679;28;20469;-88
2021/12/07 02:07:47;;;;;;;41.95;25.20;;;;;;;;;;5051675;28;20260;-89
2021/12/07 02:10:17;;;;;;;42.03;24.73;;;;;;;;;;5051850;28;20027;-89
2021/12/07 02:12:45;;;;;;;39.75;24.88;;;;;;;;;;5033865;28;20074;-88
2021/12/07 02:15:12;;;;;;;42.13;24.45;;;;;;;;;;5051586;28;20033;-89
2021/12/07 02:17:38;;;;;;;41.72;25.00;;;;;;;;;;5033647;28;20076;-89
2021/12/07 02:20:04;;;;;;;43.50;25.60;;;;;;;;;;5051425;28;20469;-88
2021/12/07 02:22:29;;;;;;;43.28;24.95;;;;;;;;;;5051361;28;20380;-88
2021/12/07 02:24:54;;;;;;;42.83;25.50;;;;;;;;;;5033810;28;20385;-89
2021/12/07 02:27:19;;;;;;;37.50;23.37;;;;;;;;;;5051529;28;20060;-88
2021/12/07 02:29:45;;;;;;;41.03;24.60;;;;;;;;;;5051384;28;20251;-88
2021/12/07 02:32:10;;;;;;;40.58;24.75;;;;;;;;;;5051502;28;20124;-88
2021/12/07 02:34:37;;;;;;;40.20;25.25;;;;;;;;;;5033125;28;20108;-88
2021/12/07 02:37:03;;;;;;;41.20;24.40;;;;;;;;;;5050985;28;20033;-88
2021/12/07 02:39:32;;;;;;;40.35;23.70;;;;;;;;;;5051019;28;20017;-88
2021/12/07 02:41:58;;;;;;;41.90;24.23;;;;;;;;;;5033104;28;20422;-88
2021/12/07 02:44:23;;;;;;;41.50;25.20;;;;;;;;;;5033084;28;20028;-88
2021/12/07 02:46:48;;;;;;;42.20;26.10;;;;;;;;;;5033100;28;20082;-88
2021/12/07 02:49:13;;;;;;;44.97;27.23;;;;;;;;;;5032653;28;20049;-88
2021/12/07 02:51:38;;;;;;;42.80;25.23;;;;;;;;;;5050575;28;20013;-88
2021/12/07 02:54:04;;;;;;;43.35;24.58;;;;;;;;;;5050647;28;20739;-88
2021/12/07 02:56:30;;;;;;;43.65;24.65;;;;;;;;;;5032537;28;20032;-88
2021/12/07 02:58:59;;;;;;;38.72;24.10;;;;;;;;;;5050544;28;20100;-88
2021/12/07 03:01:30;;;;;;;42.55;25.70;;;;;;;;;;5032531;28;20113;-88
2021/12/07 03:06:45;;;;;;;41.00;24.30;;;;;;;;;;5050811;28;20051;-88
2021/12/07 03:27:58;;;;;;;42.97;25.00;;;;;;;;;;5050184;28;20448;-88
2021/12/07 03:30:25;;;;;;;43.80;26.15;;;;;;;;;;5032829;28;20025;-89
2021/12/07 03:32:50;;;;;;;43.00;25.77;;;;;;;;;;5050251;28;20059;-88
2021/12/07 03:35:16;;;;;;;40.42;24.38;;;;;;;;;;5050037;28;20049;-88
2021/12/07 03:37:41;;;;;;;43.70;26.05;;;;;;;;;;5050007;28;20086;-88
2021/12/07 03:40:07;;;;;;;43.30;25.73;;;;;;;;;;5032163;28;20071;-88
2021/12/07 03:42:32;;;;;;;43.10;24.10;;;;;;;;;;5032102;28;20510;-89
2021/12/07 03:44:58;;;;;;;40.22;24.33;;;;;;;;;;5032596;28;20106;-88
2021/12/07 03:47:23;;;;;;;45.77;27.53;;;;;;;;;;5050427;28;20495;-88
2021/12/07 03:49:48;;;;;;;40.03;25.88;;;;;;;;;;5049980;28;20256;-88
2021/12/07 03:52:14;;;;;;;43.63;26.70;;;;;;;;;;5031971;28;20074;-88
2021/12/07 03:54:39;;;;;;;49.03;28.35;;;;;;;;;;5031847;28;20025;-88
2021/12/07 03:57:04;;;;;;;48.63;28.70;;;;;;;;;;5049700;28;20477;-88
2021/12/07 03:59:29;;;;;;;41.95;26.90;;;;;;;;;;5031967;28;20054;-88
2021/12/07 04:01:54;;;;;;;44.03;27.05;;;;;;;;;;5050109;28;20100;-88
2021/12/07 04:04:20;;;;;;;44.83;28.77;;;;;;;;;;5049867;28;20066;-88
2021/12/07 04:06:45;;;;;;;46.67;27.13;;;;;;;;;;5049880;28;20146;-88
2021/12/07 04:09:10;;;;;;;46.80;28.02;;;;;;;;;;5050100;28;20861;-89
2021/12/07 04:11:35;;;;;;;41.25;26.95;;;;;;;;;;5050021;28;20042;-88
2021/12/07 04:14:01;;;;;;;48.88;28.58;;;;;;;;;;5050689;28;20025;-88
2021/12/07 04:16:26;;;;;;;46.28;29.23;;;;;;;;;;5035775;28;20044;-88
2021/12/07 04:18:51;;;;;;;46.03;28.17;;;;;;;;;;5035701;28;20024;-88
2021/12/07 04:21:17;;;;;;;43.72;27.60;;;;;;;;;;5053937;28;20758;-88
2021/12/07 04:23:42;;;;;;;40.67;27.08;;;;;;;;;;5053308;28;20024;-88
2021/12/07 04:26:09;;;;;;;44.88;26.58;;;;;;;;;;5053245;28;20067;-88
2021/12/07 04:28:34;;;;;;;45.80;28.48;;;;;;;;;;5035565;28;20040;-88
2021/12/07 04:30:59;;;;;;;40.40;25.27;;;;;;;;;;5053828;28;20028;-89
2021/12/07 04:33:25;;;;;;;45.97;28.23;;;;;;;;;;5035496;28;20105;-89
2021/12/07 04:35:50;;;;;;;45.13;27.52;;;;;;;;;;5053182;28;20554;-88
2021/12/07 04:38:16;;;;;;;43.03;26.85;;;;;;;;;;5053842;28;20032;-88
2021/12/07 04:40:42;;;;;;;44.80;27.13;;;;;;;;;;5035764;28;20024;-89
2021/12/07 04:43:07;;;;;;;48.72;27.75;;;;;;;;;;5035327;28;20016;-89
2021/12/07 04:58:58;;;;;;;47.75;29.77;;;;;;;;;;5053057;28;20409;-88
2021/12/07 05:01:24;;;;;;;47.25;27.90;;;;;;;;;;5053056;28;20033;-88
2021/12/07 05:03:52;;;;;;;43.72;27.33;;;;;;;;;;5034924;28;20017;-89
2021/12/07 05:06:19;;;;;;;47.10;26.05;;;;;;;;;;5034851;28;20461;-88
2021/12/07 05:08:49;;;;;;;50.92;30.52;;;;;;;;;;5034475;28;20027;-88
2021/12/07 05:24:15;;;;;;;47.17;27.33;;;;;;;;;;5052960;28;20043;-88
2021/12/07 05:40:09;;;;;;;51.42;29.33;;;;;;;;;;5051009;28;20074;-89
2021/12/07 05:42:35;;;;;;;48.17;29.13;;;;;;;;;;5050531;28;20021;-88
2021/12/07 05:45:00;;;;;;;47.35;28.35;;;;;;;;;;5050897;28;20120;-91
2021/12/07 05:47:26;;;;;;;49.67;30.15;;;;;;;;;;5033913;28;20432;-91
2021/12/07 05:49:52;;;;;;;48.20;29.42;;;;;;;;;;5033547;28;20021;-91
2021/12/07 05:52:18;;;;;;;52.40;29.85;;;;;;;;;;5033754;28;20025;-91
2021/12/07 05:54:43;;;;;;;47.67;28.85;;;;;;;;;;5033536;28;20434;-91
2021/12/07 05:57:09;;;;;;;51.83;32.38;;;;;;;;;;5051701;28;20060;-91
2021/12/07 05:59:35;;;;;;;53.05;30.38;;;;;;;;;;5033574;28;20074;-91
2021/12/07 06:02:00;;;;;;;46.47;29.02;;;;;;;;;;5033931;28;20033;-91
2021/12/07 06:04:28;;;;;;;46.63;27.15;;;;;;;;;;5033920;28;20071;-91
2021/12/07 06:06:53;;;;;;;47.60;30.17;;;;;;;;;;5034422;28;20070;-90
2021/12/07 06:09:19;;;;;;;51.53;30.83;;;;;;;;;;5033839;28;20017;-91
2021/12/07 06:11:47;;;;;;;50.65;29.33;;;;;;;;;;5034393;28;20036;-91
2021/12/07 06:14:18;;;;;;;52.97;31.13;;;;;;;;;;5051836;28;20104;-91
2021/12/07 06:16:43;;;;;;;48.38;27.70;;;;;;;;;;5033326;28;20074;-91
2021/12/07 06:19:08;;;;;;;51.47;29.17;;;;;;;;;;5033305;28;20059;-91
2021/12/07 06:21:34;;;;;;;45.65;28.83;;;;;;;;;;5051240;28;20148;-91
2021/12/07 06:23:59;;;;;;;51.53;30.83;;;;;;;;;;5033067;28;20522;-90
2021/12/07 06:26:24;;;;;;;52.25;32.05;;;;;;;;;;5033603;28;20052;-91
2021/12/07 06:28:49;;;;;;;54.97;31.38;;;;;;;;;;5034524;28;20477;-91
2021/12/07 06:31:15;;;;;;;50.72;29.92;;;;;;;;;;5034856;28;20021;-90
2021/12/07 06:33:40;;;;;;;52.08;29.88;;;;;;;;;;5057435;28;20024;-91
2021/12/07 06:36:05;;;;;;;51.70;32.13;;;;;;;;;;5044562;28;20045;-91
2021/12/07 06:38:32;;;;;;;55.38;31.80;;;;;;;;;;5050788;28;20055;-90
2021/12/07 06:40:58;;;;;;;51.05;30.85;;;;;;;;;;5033077;28;20013;-90
2021/12/07 06:43:23;;;;;;;48.15;30.08;;;;;;;;;;5032831;28;20091;-90
2021/12/07 06:45:48;;;;;;;54.17;31.52;;;;;;;;;;5032829;28;20051;-90
2021/12/07 06:48:14;;;;;;;58.65;32.42;;;;;;;;;;5033649;28;20013;-91
2021/12/07 06:50:39;;;;;;;55.17;30.88;;;;;;;;;;5033437;28;20483;-90
2021/12/07 06:53:05;;;;;;;56.58;31.73;;;;;;;;;;5033086;28;20031;-90
2021/12/07 06:55:30;;;;;;;53.72;31.23;;;;;;;;;;5032408;28;20079;-91
2021/12/07 06:57:55;;;;;;;53.50;31.27;;;;;;;;;;5050449;28;20113;-91
2021/12/07 07:00:21;;;;;;;55.33;32.55;;;;;;;;;;5032765;28;20124;-91
2021/12/07 07:02:46;;;;;;;52.80;31.98;;;;;;;;;;5032670;28;20071;-91
2021/12/07 07:05:12;;;;;;;59.03;32.35;;;;;;;;;;5051009;28;20063;-88
2021/12/07 07:07:38;;;;;;;51.92;31.05;;;;;;;;;;5032488;28;20025;-88
2021/12/07 07:10:04;;;;;;;54.75;32.15;;;;;;;;;;5032506;28;20013;-88
2021/12/07 07:12:29;;;;;;;52.05;31.30;;;;;;;;;;5032998;28;20074;-90
2021/12/07 07:14:55;;;;;;;52.53;31.70;;;;;;;;;;5050241;28;20088;-90
2021/12/07 07:17:20;;;;;;;51.73;33.30;;;;;;;;;;5032357;28;20085;-90
2021/12/07 07:19:45;;;;;;;55.30;33.72;;;;;;;;;;5033329;28;20662;-89
2021/12/07 07:22:11;;;;;;;60.33;33.78;;;;;;;;;;5050364;28;20489;-86
2021/12/07 07:24:36;;;;;;;54.92;32.22;;;;;;;;;;5049065;28;20047;-86
2021/12/07 07:27:02;;;;;;;55.17;31.67;;;;;;;;;;5031239;28;20052;-86
2021/12/07 07:29:27;;;;;;;59.03;30.33;;;;;;;;;;5031169;28;20100;-87
2021/12/07 07:31:53;;;;;;;58.33;33.47;;;;;;;;;;5049600;28;20029;-86
2021/12/07 07:34:18;;;;;;;62.72;32.13;;;;;;;;;;5048416;28;20476;-86
2021/12/07 07:36:46;;;;;;;59.55;33.20;;;;;;;;;;5049155;28;20556;-86
2021/12/07 07:39:12;;;;;;;56.67;32.20;;;;;;;;;;5031186;28;20530;-88
2021/12/07 07:41:37;;;;;;;52.80;31.33;;;;;;;;;;5048531;28;20024;-86
2021/12/07 07:44:02;;;;;;;56.40;32.67;;;;;;;;;;5048773;28;20074;-86
2021/12/07 07:46:27;;;;;;;53.22;30.98;;;;;;;;;;5048869;28;20263;-86
2021/12/07 07:48:53;;;;;;;60.78;34.80;;;;;;;;;;5034132;28;20028;-86
2021/12/07 07:51:18;;;;;;;56.00;31.90;;;;;;;;;;5053189;28;20024;-86
2021/12/07 07:53:43;;;;;;;55.30;33.70;;;;;;;;;;5053263;28;20044;-86
2021/12/07 07:56:09;;;;;;;55.72;32.45;;;;;;;;;;5034377;28;20439;-86
2021/12/07 07:58:34;;;;;;;53.15;31.35;;;;;;;;;;5034601;28;20052;-86
2021/12/07 08:00:59;;;;;;;53.70;32.30;;;;;;;;;;5034490;28;20033;-87
2021/12/07 08:03:24;;;;;;;59.60;34.75;;;;;;;;;;5052792;28;20131;-86
2021/12/07 08:05:50;;;;;;;57.25;32.15;;;;;;;;;;5052824;28;20442;-87
2021/12/07 08:08:15;;;;;;;60.08;33.75;;;;;;;;;;5052514;28;20028;-87
2021/12/07 08:10:41;;;;;;;55.03;31.52;;;;;;;;;;5052084;28;20028;-86
2021/12/07 08:13:07;;;;;;;53.00;32.55;;;;;;;;;;5034502;28;20025;-87
2021/12/07 08:15:36;;;;;;;57.40;33.78;;;;;;;;;;5034803;28;20400;-87
2021/12/07 08:18:01;;;;;;;59.03;33.75;;;;;;;;;;5034088;28;20128;-86
2021/12/07 08:20:26;;;;;;;57.20;32.97;;;;;;;;;;5034123;28;20096;-86
2021/12/07 08:22:52;;;;;;;60.78;34.00;;;;;;;;;;5038041;28;20622;-86
2021/12/07 08:25:17;;;;;;;56.03;32.40;;;;;;;;;;5050595;28;20055;-86
2021/12/07 08:27:42;;;;;;;58.42;33.45;;;;;;;;;;5054999;28;20052;-87
2021/12/07 08:30:09;;;;;;;55.53;32.00;;;;;;;;;;5034227;28;20469;-86
2021/12/07 08:32:34;;;;;;;57.33;33.50;;;;;;;;;;5029653;28;20435;-87
2021/12/07 08:35:00;;;;;;;58.55;35.13;;;;;;;;;;5014381;28;20068;-87
2021/12/07 08:37:25;;;;;;;65.85;37.13;;;;;;;;;;5032501;28;20025;-87
2021/12/07 08:39:50;;;;;;;60.20;34.00;;;;;;;;;;5014230;28;20108;-87
2021/12/07 08:42:15;;;;;;;56.03;34.25;;;;;;;;;;5030443;28;20031;-86
2021/12/07 08:44:41;;;;;;;58.45;35.33;;;;;;;;;;5032109;28;20470;-87
2021/12/07 08:47:06;;;;;;;60.05;34.35;;;;;;;;;;5041643;28;20033;-87
2021/12/07 08:49:31;;;;;;;59.33;33.25;;;;;;;;;;5039630;28;20017;-87
2021/12/07 08:51:56;;;;;;;60.75;34.38;;;;;;;;;;5032023;28;20028;-86
2021/12/07 08:59:40;;;;;;;59.25;33.65;;;;;;;;;;5043870;28;20079;-87
2021/12/07 09:02:06;;;;;;;58.75;32.10;;;;;;;;;;5032968;28;20017;-87
2021/12/07 09:04:31;;;;;;;57.17;33.60;;;;;;;;;;5018147;28;20366;-87
2021/12/07 09:06:56;;;;;;;54.55;32.30;;;;;;;;;;5051900;28;20444;-87
2021/12/07 09:09:22;;;;;;;54.37;31.57;;;;;;;;;;5033541;28;20017;-87
2021/12/07 09:11:47;;;;;;;59.33;33.03;;;;;;;;;;5050859;28;20264;-87
2021/12/07 09:14:15;;;;;;;55.20;33.13;;;;;;;;;;5016951;28;20021;-87
2021/12/07 09:16:40;;;;;;;52.10;30.63;;;;;;;;;;5033555;28;20571;-87
2021/12/07 09:19:05;;;;;;;53.28;30.25;;;;;;;;;;5051542;28;20029;-87
2021/12/07 09:21:31;;;;;;;53.50;33.15;;;;;;;;;;5021047;28;20404;-87
2021/12/07 09:23:56;;;;;;;52.53;31.63;;;;;;;;;;5063779;28;20051;-87
2021/12/07 09:26:21;;;;;;;53.22;31.90;;;;;;;;;;5070616;28;20076;-86
2021/12/07 09:28:47;;;;;;;57.95;32.58;;;;;;;;;;5071095;28;20069;-87
2021/12/07 09:31:12;;;;;;;52.78;31.38;;;;;;;;;;5043401;28;20021;-87
2021/12/07 09:33:37;;;;;;;54.75;31.35;;;;;;;;;;5051025;28;20032;-86
2021/12/07 09:36:04;;;;;;;50.70;31.33;;;;;;;;;;5016047;28;20061;-87
2021/12/07 09:38:29;;;;;;;52.55;32.38;;;;;;;;;;5030520;28;20026;-86
2021/12/07 09:40:55;;;;;;;49.78;31.27;;;;;;;;;;5037789;28;20023;-86
2021/12/07 09:43:20;;;;;;;50.92;32.05;;;;;;;;;;5050517;28;20104;-86
2021/12/07 09:45:46;;;;;;;46.13;29.60;;;;;;;;;;5036651;28;20022;-87
2021/12/07 09:48:12;;;;;;;53.65;31.90;;;;;;;;;;5032430;28;20030;-87
2021/12/07 09:50:38;;;;;;;50.45;30.50;;;;;;;;;;5045818;28;20045;-86
2021/12/07 09:53:06;;;;;;;52.75;31.08;;;;;;;;;;5021160;28;20614;-86
2021/12/07 09:55:33;;;;;;;49.50;29.88;;;;;;;;;;5038165;28;20035;-86
2021/12/07 09:57:58;;;;;;;50.50;31.90;;;;;;;;;;5030374;28;20025;-87
2021/12/07 10:00:25;;;;;;;47.17;29.77;;;;;;;;;;5029222;28;20811;-86
2021/12/07 10:02:50;;;;;;;51.25;30.30;;;;;;;;;;5022270;28;20268;-86
2021/12/07 10:05:18;;;;;;;48.60;30.65;;;;;;;;;;5058666;28;20033;-86
2021/12/07 10:07:44;;;;;;;47.47;28.75;;;;;;;;;;5041425;28;20082;-86
2021/12/07 10:10:18;;;;;;;49.65;30.73;;;;;;;;;;5055050;28;20010;-86
2021/12/07 10:12:43;;;;;;;46.75;29.10;;;;;;;;;;5053185;28;20100;-87
2021/12/07 10:15:09;;;;;;;48.55;29.40;;;;;;;;;;5021753;28;20095;-88
2021/12/07 10:17:36;;;;;;;46.10;28.67;;;;;;;;;;5049601;28;20029;-86
2021/12/07 10:20:21;;;;;;;49.25;30.27;;;;;;;;;;5014329;28;20481;-87
2021/12/07 10:22:48;;;;;;;45.40;27.23;;;;;;;;;;5025065;28;20060;-87
2021/12/07 10:25:23;;;;;;;48.03;29.38;;;;;;;;;;5022046;28;20039;-87
2021/12/07 10:27:49;;;;;;;45.67;28.83;;;;;;;;;;5031383;28;20044;-87
2021/12/07 10:30:19;;;;;;;45.80;29.73;;;;;;;;;;5031020;28;20090;-87
2021/12/07 10:33:00;;;;;;;49.70;30.27;;;;;;;;;;5049130;28;20062;-87
2021/12/07 10:35:30;;;;;;;47.42;29.83;;;;;;;;;;5031418;28;20025;-87
2021/12/07 10:38:08;;;;;;;46.65;29.52;;;;;;;;;;5049428;28;20083;-86
2021/12/07 10:40:33;;;;;;;46.58;28.33;;;;;;;;;;5031593;28;20079;-87
2021/12/07 10:42:58;;;;;;;46.22;27.40;;;;;;;;;;5031200;28;20029;-87
2021/12/07 10:45:27;;;;;;;49.28;29.40;;;;;;;;;;5030875;28;20040;-87
2021/12/07 10:47:52;;;;;;;43.17;28.42;;;;;;;;;;5048902;28;20444;-86
2021/12/07 10:50:18;;;;;;;45.78;28.95;;;;;;;;;;5048963;28;20025;-87
2021/12/07 10:52:45;;;;;;;46.60;27.77;;;;;;;;;;5048344;28;20580;-86
2021/12/07 10:55:16;;;;;;;43.92;27.70;;;;;;;;;;5048855;28;20473;-87
2021/12/07 10:57:51;;;;;;;43.38;28.38;;;;;;;;;;5049645;28;20025;-87
2021/12/07 11:00:37;;;;;;;46.83;28.88;;;;;;;;;;5032492;28;20029;-90
2021/12/07 11:03:05;;;;;;;45.22;29.35;;;;;;;;;;5032460;28;20032;-90
2021/12/07 11:05:33;;;;;;;44.08;27.30;;;;;;;;;;5032333;28;20057;-90
2021/12/07 11:08:00;;;;;;;47.00;29.33;;;;;;;;;;5032055;28;20024;-90
2021/12/07 11:10:30;;;;;;;43.63;28.38;;;;;;;;;;5032129;28;20016;-90
2021/12/07 11:13:12;;;;;;;43.05;26.88;;;;;;;;;;5031145;28;20481;-90
2021/12/07 11:15:47;;;;;;;43.83;27.60;;;;;;;;;;5032794;28;20041;-91
2021/12/07 11:18:15;;;;;;;43.95;27.45;;;;;;;;;;5032410;28;20021;-90
2021/12/07 11:20:44;;;;;;;42.67;27.45;;;;;;;;;;5047824;28;20098;-90
2021/12/07 11:23:12;;;;;;;44.63;28.30;;;;;;;;;;5031858;28;20048;-90
2021/12/07 11:31:19;;;;;;;45.38;28.25;;;;;;;;;;5050070;28;20043;-90
2021/12/07 11:33:45;;;;;;;46.60;29.60;;;;;;;;;;5031814;28;20112;-89
2021/12/07 11:36:15;;;;;;;45.55;28.42;;;;;;;;;;5031718;28;20153;-90
2021/12/07 11:38:40;;;;;;;45.17;28.02;;;;;;;;;;5031669;28;20032;-89
2021/12/07 11:41:23;;;;;;;43.77;27.70;;;;;;;;;;5050280;28;20025;-89
2021/12/07 11:43:54;;;;;;;45.83;28.65;;;;;;;;;;5032294;28;20260;-90
2021/12/07 11:46:19;;;;;;;40.55;25.98;;;;;;;;;;5031913;28;20021;-89
2021/12/07 11:48:45;;;;;;;43.80;27.92;;;;;;;;;;5031861;28;20050;-89
2021/12/07 11:51:10;;;;;;;44.85;27.50;;;;;;;;;;5049871;28;20051;-89
2021/12/07 11:53:35;;;;;;;41.50;25.45;;;;;;;;;;5032297;28;20473;-90
2021/12/07 11:56:00;;;;;;;45.70;27.90;;;;;;;;;;5031980;28;20040;-90
2021/12/07 11:58:27;;;;;;;45.10;27.47;;;;;;;;;;5029893;28;20283;-86
2021/12/07 12:00:54;;;;;;;43.22;27.95;;;;;;;;;;5050535;28;20757;-87
2021/12/07 12:03:23;;;;;;;42.33;28.15;;;;;;;;;;5048357;28;20028;-88
2021/12/07 12:05:49;;;;;;;44.63;27.75;;;;;;;;;;5048434;28;20789;-87
2021/12/07 12:08:19;;;;;;;45.58;28.25;;;;;;;;;;5047955;28;20104;-88
2021/12/07 12:10:47;;;;;;;42.45;27.17;;;;;;;;;;5030205;28;20028;-88
2021/12/07 12:13:17;;;;;;;42.60;26.38;;;;;;;;;;5047730;28;20047;-87
2021/12/07 12:16:01;;;;;;;51.60;28.85;;;;;;;;;;5029714;28;20025;-87
2021/12/07 12:18:31;;;;;;;47.03;29.17;;;;;;;;;;5047673;28;20028;-87
2021/12/07 12:20:59;;;;;;;49.00;29.33;;;;;;;;;;5047764;28;20017;-88
2021/12/07 12:23:29;;;;;;;44.08;27.95;;;;;;;;;;5029555;28;20435;-87
2021/12/07 12:25:56;;;;;;;47.40;28.60;;;;;;;;;;5047318;28;20025;-88
2021/12/07 12:28:23;;;;;;;45.78;28.55;;;;;;;;;;5047584;28;20029;-87
2021/12/07 12:30:48;;;;;;;49.05;30.05;;;;;;;;;;5047408;28;20017;-88
2021/12/07 12:33:14;;;;;;;49.58;30.48;;;;;;;;;;5047580;28;20664;-88
2021/12/07 12:35:48;;;;;;;48.58;30.80;;;;;;;;;;5031476;28;20021;-87
2021/12/07 12:38:18;;;;;;;48.95;28.70;;;;;;;;;;5032887;28;20029;-87
2021/12/07 12:40:52;;;;;;;49.28;30.23;;;;;;;;;;5033776;28;20448;-87
2021/12/07 12:43:30;;;;;;;50.85;31.23;;;;;;;;;;5033512;28;20032;-88
2021/12/07 12:46:00;;;;;;;47.88;29.88;;;;;;;;;;5033281;28;20052;-87
2021/12/07 12:48:27;;;;;;;51.67;30.70;;;;;;;;;;5051562;28;20448;-87
2021/12/07 12:50:53;;;;;;;50.63;32.60;;;;;;;;;;5051340;28;20079;-88
2021/12/07 12:53:18;;;;;;;59.65;34.05;;;;;;;;;;5033579;28;20381;-88
2021/12/07 12:55:56;;;;;;;50.53;32.90;;;;;;;;;;5050724;28;20025;-87
2021/12/07 12:58:27;;;;;;;61.15;35.85;;;;;;;;;;5050993;28;20045;-88
2021/12/07 13:00:58;;;;;;;62.92;33.65;;;;;;;;;;5033020;28;20029;-87
2021/12/07 13:03:24;;;;;;;63.95;35.40;;;;;;;;;;5032616;28;20552;-88
2021/12/07 13:06:00;;;;;;;60.78;35.15;;;;;;;;;;5050999;28;20108;-88
2021/12/07 13:08:25;;;;;;;61.78;34.45;;;;;;;;;;5033882;28;20032;-87
2021/12/07 13:11:04;;;;;;;64.53;35.90;;;;;;;;;;5034641;28;20017;-87
2021/12/07 13:13:32;;;;;;;60.35;32.70;;;;;;;;;;5032017;28;20067;-87
2021/12/07 13:15:57;;;;;;;64.13;35.63;;;;;;;;;;5032439;28;20068;-87
2021/12/07 13:18:27;;;;;;;61.88;35.30;;;;;;;;;;5050525;28;20464;-87
2021/12/07 13:20:52;;;;;;;56.88;33.20;;;;;;;;;;5050044;28;20024;-87
2021/12/07 13:23:17;;;;;;;64.50;36.58;;;;;;;;;;5032263;28;20031;-87
2021/12/07 13:25:45;;;;;;;59.53;34.60;;;;;;;;;;5049913;28;20100;-87
2021/12/07 13:28:13;;;;;;;60.70;35.00;;;;;;;;;;5050007;28;20497;-87
2021/12/07 13:30:41;;;;;;;60.63;34.00;;;;;;;;;;5032053;28;20025;-87
2021/12/07 13:33:14;;;;;;;61.00;34.33;;;;;;;;;;5031524;28;20024;-87
2021/12/07 13:35:39;;;;;;;59.90;35.70;;;;;;;;;;5049385;28;20032;-86
2021/12/07 13:38:15;;;;;;;63.97;34.55;;;;;;;;;;5031643;28;20671;-87
2021/12/07 13:40:41;;;;;;;62.47;34.78;;;;;;;;;;5031622;28;20021;-87
2021/12/07 13:43:06;;;;;;;60.45;33.47;;;;;;;;;;5050149;28;20016;-87
2021/12/07 13:45:31;;;;;;;63.95;35.97;;;;;;;;;;5050255;28;20013;-87
2021/12/07 13:47:56;;;;;;;70.18;39.47;;;;;;;;;;5032184;28;20439;-87
2021/12/07 13:50:26;;;;;;;66.07;34.83;;;;;;;;;;5032082;28;20019;-87
2021/12/07 13:52:52;;;;;;;62.00;35.30;;;;;;;;;;5049457;28;20020;-87
2021/12/07 13:55:23;;;;;;;67.35;35.58;;;;;;;;;;5031365;28;20013;-86
2021/12/07 13:57:50;;;;;;;60.80;34.95;;;;;;;;;;5031205;28;20448;-87
2021/12/07 14:00:21;;;;;;;76.38;37.50;;;;;;;;;;5031535;28;20031;-86
2021/12/07 14:02:49;;;;;;;69.07;36.78;;;;;;;;;;5050121;28;20032;-90
2021/12/07 14:05:20;;;;;;;73.70;37.22;;;;;;;;;;5033793;28;20492;-90
2021/12/07 14:07:46;;;;;;;72.38;36.78;;;;;;;;;;5033303;28;20028;-90
2021/12/07 14:10:17;;;;;;;67.35;35.88;;;;;;;;;;5033407;28;20013;-90
2021/12/07 14:12:43;;;;;;;66.32;35.05;;;;;;;;;;5033531;28;20032;-90
2021/12/07 14:15:14;;;;;;;64.88;34.45;;;;;;;;;;5033694;28;20025;-90
2021/12/07 14:17:40;;;;;;;66.13;36.50;;;;;;;;;;5051430;28;20112;-90
2021/12/07 14:20:06;;;;;;;71.50;37.20;;;;;;;;;;5032996;28;20033;-90
2021/12/07 14:22:31;;;;;;;64.45;36.00;;;;;;;;;;5051420;28;20025;-86
2021/12/07 14:24:56;;;;;;;68.90;36.40;;;;;;;;;;5049497;28;20025;-87
2021/12/07 14:27:21;;;;;;;73.37;36.77;;;;;;;;;;5031085;28;20307;-86
2021/12/07 14:29:46;;;;;;;69.43;36.03;;;;;;;;;;5031006;28;20279;-87
2021/12/07 14:35:15;;;;;;;76.35;37.80;;;;;;;;;;5047925;28;20119;-86
2021/12/07 14:37:40;;;;;;;71.25;38.25;;;;;;;;;;5049732;28;20587;-86
2021/12/07 14:40:06;;;;;;;72.90;37.40;;;;;;;;;;5030786;28;20560;-86
2021/12/07 14:42:32;;;;;;;72.18;36.47;;;;;;;;;;5030856;28;20025;-87
2021/12/07 14:44:58;;;;;;;70.70;35.97;;;;;;;;;;5031028;28;20027;-86
2021/12/07 14:47:23;;;;;;;72.38;38.67;;;;;;;;;;5030589;28;20119;-87
2021/12/07 14:49:50;;;;;;;69.88;38.28;;;;;;;;;;5049098;28;20096;-86
2021/12/07 14:52:18;;;;;;;82.03;38.78;;;;;;;;;;5048668;28;20025;-87
2021/12/07 14:54:43;;;;;;;72.60;37.38;;;;;;;;;;5048647;28;20013;-86
2021/12/07 14:57:08;;;;;;;79.53;37.60;;;;;;;;;;5032142;28;20033;-87
2021/12/07 14:59:37;;;;;;;76.35;35.63;;;;;;;;;;5048023;28;20024;-87
2021/12/07 15:02:03;;;;;;;75.78;36.20;;;;;;;;;;5029963;28;20025;-87
2021/12/07 15:04:28;;;;;;;81.18;38.35;;;;;;;;;;5030194;28;20507;-87
2021/12/07 15:06:59;;;;;;;68.15;35.40;;;;;;;;;;5049180;28;20029;-85
2021/12/07 15:09:26;;;;;;;77.32;36.53;;;;;;;;;;5049174;28;20017;-86
2021/12/07 15:11:52;;;;;;;74.05;37.13;;;;;;;;;;5030747;28;20108;-86
2021/12/07 15:14:18;;;;;;;85.38;38.75;;;;;;;;;;5048765;28;20092;-86
2021/12/07 15:16:45;;;;;;;78.20;35.70;;;;;;;;;;5030897;28;20029;-86
2021/12/07 15:19:11;;;;;;;74.57;36.67;;;;;;;;;;5031624;28;20032;-86
2021/12/07 15:21:38;;;;;;;85.22;39.78;;;;;;;;;;5030504;28;20507;-86
2021/12/07 15:24:07;;;;;;;81.82;38.65;;;;;;;;;;5049028;28;20106;-86
2021/12/07 15:26:33;;;;;;;79.80;37.42;;;;;;;;;;5014883;28;20524;-86
2021/12/07 15:29:01;;;;;;;71.05;36.25;;;;;;;;;;5048926;28;20127;-86
2021/12/07 15:31:28;;;;;;;74.13;33.72;;;;;;;;;;5030820;28;20021;-86
2021/12/07 15:33:54;;;;;;;74.03;36.13;;;;;;;;;;5048655;28;20020;-86
2021/12/07 15:36:21;;;;;;;69.38;33.50;;;;;;;;;;5048887;28;20029;-86
2021/12/07 15:38:47;;;;;;;82.28;37.97;;;;;;;;;;5030791;28;20044;-85
2021/12/07 15:41:12;;;;;;;74.07;33.95;;;;;;;;;;5031175;28;20024;-86
2021/12/07 15:43:45;;;;;;;77.90;38.20;;;;;;;;;;5030558;28;20024;-86
2021/12/07 15:46:14;;;;;;;75.35;37.55;;;;;;;;;;5048929;28;20473;-86
2021/12/07 15:48:41;;;;;;;76.18;37.33;;;;;;;;;;5030828;28;20512;-85
2021/12/07 15:51:06;;;;;;;80.75;38.22;;;;;;;;;;5048790;28;20028;-86
2021/12/07 15:53:31;;;;;;;81.10;38.27;;;;;;;;;;5048809;28;20017;-86
2021/12/07 15:55:56;;;;;;;82.77;39.47;;;;;;;;;;5030581;28;20297;-86
2021/12/07 15:58:24;;;;;;;91.65;39.58;;;;;;;;;;5048654;28;20979;-85
2021/12/07 16:00:49;;;;;;;75.55;37.80;;;;;;;;;;5048860;28;20024;-85
2021/12/07 16:03:20;;;;;;;79.90;36.58;;;;;;;;;;5048361;28;20021;-86
2021/12/07 16:05:47;;;;;;;72.95;36.20;;;;;;;;;;5030315;28;20044;-86
2021/12/07 16:08:20;;;;;;;84.68;39.42;;;;;;;;;;5030398;28;20083;-86